createdAt,value
2023-05-12T00:02:12.526Z,61.82
2023-05-12T00:04:40.786Z,63.60
2023-05-12T00:07:08.984Z,63.97
2023-05-12T00:09:37.073Z,63.97
2023-05-12T00:12:05.660Z,60.06
2023-05-12T00:14:33.511Z,60.24
2023-05-12T00:17:01.447Z,61.39
2023-05-12T00:19:30.861Z,60.56
2023-05-12T00:21:58.712Z,60.89
2023-05-12T00:24:26.822Z,59.12
2023-05-12T00:26:55.093Z,58.51
2023-05-12T00:29:22.917Z,58.74
2023-05-12T00:31:50.838Z,57.58
2023-05-12T00:34:18.797Z,57.43
2023-05-12T00:36:48.012Z,57.46
2023-05-12T00:39:16.173Z,57.41
2023-05-12T00:41:44.525Z,57.64
2023-05-12T00:44:12.490Z,59.49
2023-05-12T00:46:40.719Z,58.59
2023-05-12T00:49:08.874Z,57.89
2023-05-12T00:51:37.230Z,57.09
2023-05-12T00:54:06.957Z,57.59
2023-05-12T00:56:39.363Z,57.85
2023-05-12T00:59:09.275Z,58.25
2023-05-12T01:01:41.144Z,57.83
2023-05-12T01:04:09.591Z,61.57
2023-05-12T01:06:44.519Z,63.67
2023-05-12T01:09:15.121Z,64.64
2023-05-12T01:11:43.254Z,63.27
2023-05-12T01:14:11.204Z,63.78
2023-05-12T01:16:43.808Z,63.86
2023-05-12T01:19:20.677Z,62.58
2023-05-12T01:21:48.692Z,60.79
2023-05-12T01:24:21.751Z,62.17
2023-05-12T01:26:51.229Z,58.52
2023-05-12T01:29:20.021Z,58.29
2023-05-12T01:31:49.326Z,58.11
2023-05-12T01:34:18.633Z,59.45
2023-05-12T01:36:49.899Z,58.27
2023-05-12T01:39:17.984Z,59.86
2023-05-12T01:41:45.971Z,60.86
2023-05-12T01:44:15.567Z,60.82
2023-05-12T01:46:43.574Z,59.25
2023-05-12T01:49:12.694Z,61.19
2023-05-12T01:51:40.875Z,61.64
2023-05-12T01:54:08.823Z,61.19
2023-05-12T01:56:39.344Z,60.22
2023-05-12T01:59:07.650Z,58.01
2023-05-12T02:01:37.585Z,59.42
2023-05-12T02:04:08.844Z,63.39
2023-05-12T02:06:38.327Z,60.62
2023-05-12T02:09:06.685Z,58.16
2023-05-12T02:11:34.653Z,57.54
2023-05-12T02:14:03.124Z,58.15
2023-05-12T02:16:34.935Z,60.75
2023-05-12T02:19:04.578Z,59.63
2023-05-12T02:21:33.602Z,57.69
2023-05-12T02:24:01.870Z,57.73
2023-05-12T02:26:29.949Z,57.03
2023-05-12T02:28:57.889Z,58.68
2023-05-12T02:31:26.052Z,58.80
2023-05-12T02:33:54.078Z,58.95
2023-05-12T02:36:23.476Z,62.38
2023-05-12T02:38:51.498Z,62.26
2023-05-12T02:41:19.609Z,62.41
2023-05-12T02:43:47.817Z,63.56
2023-05-12T02:46:16.214Z,66.23
2023-05-12T02:48:44.430Z,67.13
2023-05-12T02:51:12.614Z,68.39
2023-05-12T02:53:42.210Z,64.99
2023-05-12T02:56:10.207Z,62.67
2023-05-12T02:58:38.066Z,58.88
2023-05-12T03:01:11.135Z,56.96
2023-05-12T03:03:40.498Z,57.86
2023-05-12T03:06:09.565Z,58.97
2023-05-12T03:08:37.858Z,57.66
2023-05-12T03:11:07.455Z,55.88
2023-05-12T03:13:35.343Z,56.31
2023-05-12T03:16:03.376Z,57.27
2023-05-12T03:18:31.691Z,59.76
2023-05-12T03:20:59.762Z,60.85
2023-05-12T03:23:27.937Z,61.24
2023-05-12T03:25:56.578Z,59.75
2023-05-12T03:28:26.193Z,59.15
2023-05-12T03:30:55.011Z,59.74
2023-05-12T03:33:25.961Z,59.64
2023-05-12T03:35:54.771Z,59.93
2023-05-12T03:38:24.450Z,59.85
2023-05-12T03:40:53.321Z,58.46
2023-05-12T03:43:21.969Z,58.05
2023-05-12T03:45:51.473Z,58.48
2023-05-12T03:48:19.406Z,61.69
2023-05-12T03:50:47.380Z,58.96
2023-05-12T03:53:16.126Z,57.70
2023-05-12T03:55:43.975Z,57.45
2023-05-12T03:58:11.867Z,57.32
2023-05-12T04:00:39.777Z,55.45
2023-05-12T04:03:09.471Z,57.37
2023-05-12T04:05:39.455Z,62.26
2023-05-12T04:08:07.354Z,63.15
2023-05-12T04:10:40.046Z,61.27
2023-05-12T04:13:08.349Z,59.51
2023-05-12T04:15:36.517Z,57.03
2023-05-12T04:18:05.039Z,57.29
2023-05-12T04:20:34.256Z,55.03
2023-05-12T04:23:02.445Z,56.65
2023-05-12T04:25:30.493Z,56.45
2023-05-12T04:27:58.388Z,56.26
2023-05-12T04:30:26.341Z,55.80
2023-05-12T04:32:54.561Z,54.57
2023-05-12T04:35:23.249Z,54.00
2023-05-12T04:37:52.828Z,55.27
2023-05-12T04:40:21.259Z,53.52
2023-05-12T04:42:49.619Z,55.57
2023-05-12T04:45:18.521Z,56.42
2023-05-12T04:47:47.019Z,57.59
2023-05-12T04:50:15.305Z,56.95
2023-05-12T04:52:43.227Z,58.48
2023-05-12T04:55:12.767Z,56.16
2023-05-12T04:57:41.613Z,54.09
2023-05-12T05:00:12.564Z,51.68
2023-05-12T05:02:41.406Z,55.89
2023-05-12T05:05:10.851Z,54.79
2023-05-12T05:07:39.076Z,53.84
2023-05-12T05:10:08.427Z,53.41
2023-05-12T05:12:37.882Z,51.81
2023-05-12T05:15:07.595Z,50.99
2023-05-12T05:17:35.774Z,51.77
2023-05-12T05:20:09.735Z,52.92
2023-05-12T05:22:40.879Z,53.60
2023-05-12T05:25:10.332Z,51.50
2023-05-12T05:27:39.906Z,50.20
2023-05-12T05:30:09.232Z,50.73
2023-05-12T05:32:40.320Z,51.98
2023-05-12T05:35:08.967Z,51.14
2023-05-12T05:37:40.880Z,51.97
2023-05-12T05:40:10.306Z,49.10
2023-05-12T05:42:40.109Z,49.72
2023-05-12T05:45:09.447Z,49.52
2023-05-12T05:47:37.889Z,48.84
2023-05-12T05:50:08.856Z,47.80
2023-05-12T05:52:39.427Z,48.20
2023-05-12T05:55:08.696Z,47.46
2023-05-12T05:57:37.890Z,46.18
2023-05-12T06:00:10.003Z,45.28
2023-05-12T06:02:51.517Z,46.71
2023-05-12T06:05:23.777Z,46.54
2023-05-12T06:07:52.248Z,44.95
2023-05-12T06:10:22.762Z,46.04
2023-05-12T06:12:51.428Z,46.84
2023-05-12T06:15:20.989Z,45.88
2023-05-12T06:17:50.838Z,47.50
2023-05-12T06:20:19.019Z,47.28
2023-05-12T06:22:47.275Z,44.88
2023-05-12T06:25:15.531Z,45.13
2023-05-12T06:27:43.450Z,46.33
2023-05-12T06:30:16.006Z,45.56
2023-05-12T06:32:46.242Z,46.22
2023-05-12T06:35:14.181Z,46.01
2023-05-12T06:37:44.761Z,48.05
2023-05-12T06:40:15.726Z,50.06
2023-05-12T06:42:43.741Z,49.58
2023-05-12T06:45:13.003Z,48.32
2023-05-12T06:47:45.257Z,47.28
2023-05-12T06:50:13.348Z,48.71
2023-05-12T06:52:41.954Z,51.54
2023-05-12T06:55:10.682Z,52.21
2023-05-12T06:57:38.657Z,50.67
2023-05-12T07:00:08.197Z,47.77
2023-05-12T07:02:36.091Z,46.19
2023-05-12T07:05:05.771Z,46.57
2023-05-12T07:07:33.641Z,42.94
2023-05-12T07:10:01.734Z,42.57
2023-05-12T07:12:29.663Z,43.11
2023-05-12T07:14:57.573Z,41.90
2023-05-12T07:17:25.958Z,43.08
2023-05-12T07:19:53.995Z,43.10
2023-05-12T07:22:24.557Z,43.41
2023-05-12T07:24:52.773Z,41.48
2023-05-12T07:27:21.270Z,42.18
2023-05-12T07:29:49.462Z,41.76
2023-05-12T07:32:17.938Z,40.65
2023-05-12T07:34:46.183Z,40.30
2023-05-12T07:37:14.325Z,41.22
2023-05-12T07:39:43.768Z,42.00
2023-05-12T07:42:11.802Z,41.82
2023-05-12T07:44:39.884Z,40.10
2023-05-12T07:47:08.273Z,39.93
2023-05-12T07:49:36.322Z,38.62
2023-05-12T07:52:04.594Z,38.20
2023-05-12T07:54:32.747Z,38.93
2023-05-12T07:57:02.167Z,37.59
2023-05-12T07:59:30.047Z,38.42
2023-05-12T08:01:58.807Z,37.61
2023-05-12T08:04:27.207Z,37.71
2023-05-12T08:06:55.387Z,37.89
2023-05-12T08:09:23.525Z,37.97
2023-05-12T08:11:53.345Z,38.11
2023-05-12T08:14:23.139Z,36.25
2023-05-12T08:16:51.226Z,35.33
2023-05-12T08:19:19.346Z,34.96
2023-05-12T08:21:47.209Z,35.30
2023-05-12T08:24:18.007Z,34.97
2023-05-12T08:26:47.832Z,33.86
2023-05-12T08:29:16.177Z,33.14
2023-05-12T08:31:45.688Z,34.43
2023-05-12T08:34:13.754Z,35.13
2023-05-12T08:36:42.375Z,35.53
2023-05-12T08:39:11.271Z,35.06
2023-05-12T08:41:45.916Z,33.92
2023-05-12T08:44:15.272Z,33.07
2023-05-12T08:46:45.323Z,32.56
2023-05-12T08:49:18.000Z,32.66
2023-05-12T08:51:57.349Z,33.86
2023-05-12T08:54:28.551Z,33.54
2023-05-12T08:59:29.718Z,33.66
2023-05-12T09:02:04.508Z,32.14
2023-05-12T09:04:33.306Z,34.43
2023-05-12T09:07:01.704Z,34.20
2023-05-12T09:09:32.739Z,33.70
2023-05-12T09:12:02.974Z,32.85
2023-05-12T09:14:36.159Z,32.91
2023-05-12T09:17:06.804Z,33.83
2023-05-12T09:19:37.938Z,32.88
2023-05-12T09:22:06.135Z,34.09
2023-05-12T09:24:37.806Z,35.03
2023-05-12T09:27:07.102Z,34.08
2023-05-12T09:29:42.514Z,34.51
2023-05-12T09:32:17.793Z,36.06
2023-05-12T09:34:46.296Z,35.57
2023-05-12T09:37:15.683Z,34.73
2023-05-12T09:39:45.753Z,36.10
2023-05-12T09:42:15.019Z,35.59
2023-05-12T09:44:43.373Z,35.28
2023-05-12T09:47:11.518Z,33.55
2023-05-12T09:49:49.166Z,33.29
2023-05-12T09:52:17.684Z,32.78
2023-05-12T09:54:45.905Z,32.82
2023-05-12T09:57:17.300Z,32.98
2023-05-12T09:59:47.700Z,33.04
2023-05-12T10:02:17.114Z,33.35
2023-05-12T10:04:53.859Z,32.15
2023-05-12T10:07:24.040Z,31.04
2023-05-12T10:09:52.863Z,32.10
2023-05-12T10:12:21.098Z,32.36
2023-05-12T10:14:50.310Z,32.53
2023-05-12T10:17:21.171Z,30.26
2023-05-12T10:19:52.483Z,31.36
2023-05-12T10:22:21.261Z,31.21
2023-05-12T10:24:50.838Z,30.97
2023-05-12T10:27:20.397Z,30.43
2023-05-12T10:29:50.728Z,31.01
2023-05-12T10:32:19.651Z,32.30
2023-05-12T10:34:48.481Z,29.15
2023-05-12T10:37:18.732Z,30.22
2023-05-12T10:39:54.256Z,28.84
2023-05-12T10:42:26.270Z,30.09
2023-05-12T10:44:55.710Z,28.63
2023-05-12T10:47:27.085Z,29.15
2023-05-12T10:49:59.132Z,28.64
2023-05-12T10:52:28.880Z,28.48
2023-05-12T10:55:02.244Z,28.78
2023-05-12T10:57:31.381Z,26.69
2023-05-12T11:00:02.885Z,27.47
2023-05-12T11:02:34.464Z,29.15
2023-05-12T11:05:06.793Z,28.05
2023-05-12T11:07:37.808Z,26.37
2023-05-12T11:10:08.057Z,27.06
2023-05-12T11:12:37.533Z,27.47
2023-05-12T11:15:08.366Z,27.63
2023-05-12T11:17:40.662Z,28.45
2023-05-12T11:20:10.917Z,27.17
2023-05-12T11:22:42.977Z,27.63
2023-05-12T11:25:12.529Z,27.94
2023-05-12T11:27:45.021Z,28.18
2023-05-12T11:30:13.949Z,25.96
2023-05-12T11:32:42.253Z,26.33
2023-05-12T11:35:12.081Z,25.42
2023-05-12T11:37:42.486Z,25.04
2023-05-12T11:40:17.967Z,25.05
2023-05-12T11:42:48.864Z,25.49
2023-05-12T11:45:22.490Z,24.33
2023-05-12T11:47:50.892Z,25.17
2023-05-12T11:50:24.068Z,24.20
2023-05-12T11:52:54.670Z,25.16
2023-05-12T11:55:26.940Z,25.32
2023-05-12T11:58:00.427Z,24.67
2023-05-12T12:00:30.458Z,24.27
2023-05-12T12:03:12.790Z,23.12
2023-05-12T12:05:42.491Z,23.12
2023-05-12T12:08:14.427Z,23.81
2023-05-12T12:10:45.775Z,23.89
2023-05-12T12:13:14.271Z,22.55
2023-05-12T12:15:42.253Z,22.61
2023-05-12T12:18:10.242Z,24.00
2023-05-12T12:20:38.477Z,22.34
2023-05-12T12:23:06.668Z,23.90
2023-05-12T12:25:37.330Z,24.25
2023-05-12T12:28:05.952Z,24.20
2023-05-12T12:30:34.683Z,25.22
2023-05-12T12:33:03.005Z,25.79
2023-05-12T12:35:34.015Z,26.05
2023-05-12T12:38:02.390Z,25.48
2023-05-12T12:40:31.885Z,24.47
2023-05-12T12:43:01.207Z,23.60
2023-05-12T12:45:29.176Z,24.75
2023-05-12T12:47:57.544Z,23.99
2023-05-12T12:50:27.312Z,24.90
2023-05-12T12:52:55.526Z,23.34
2023-05-12T12:55:24.272Z,22.67
2023-05-12T12:57:52.679Z,22.88
2023-05-12T13:00:24.331Z,22.96
2023-05-12T13:02:53.082Z,22.11
2023-05-12T13:05:21.913Z,21.55
2023-05-12T13:07:51.539Z,21.07
2023-05-12T13:10:20.027Z,21.78
2023-05-12T13:12:48.365Z,21.57
2023-05-12T13:15:19.358Z,20.35
2023-05-12T13:17:49.466Z,20.04
2023-05-12T13:20:17.680Z,20.96
2023-05-12T13:22:46.373Z,19.32
2023-05-12T13:25:14.793Z,19.69
2023-05-12T13:27:42.954Z,21.04
2023-05-12T13:30:13.470Z,21.69
2023-05-12T13:32:45.202Z,21.39
2023-05-12T13:35:14.700Z,21.73
2023-05-12T13:37:42.896Z,21.81
2023-05-12T13:40:11.924Z,22.27
2023-05-12T13:42:39.919Z,22.00
2023-05-12T13:45:09.703Z,21.52
2023-05-12T13:47:37.861Z,21.69
2023-05-12T13:50:07.160Z,21.50
2023-05-12T13:52:36.674Z,21.32
2023-05-12T13:55:05.424Z,20.23
2023-05-12T13:57:33.940Z,19.99
2023-05-12T14:00:03.224Z,19.49
2023-05-12T14:02:31.447Z,18.94
2023-05-12T14:04:59.672Z,19.23
2023-05-12T14:07:29.089Z,19.38
2023-05-12T14:09:58.534Z,20.06
2023-05-12T14:12:26.894Z,19.93
2023-05-12T14:14:59.942Z,19.84
2023-05-12T14:17:36.795Z,20.45
2023-05-12T14:20:06.586Z,20.31
2023-05-12T14:22:35.439Z,19.77
2023-05-12T14:25:06.065Z,19.97
2023-05-12T14:27:34.756Z,19.82
2023-05-12T14:30:06.318Z,18.69
2023-05-12T14:32:34.795Z,19.13
2023-05-12T14:35:04.455Z,19.24
2023-05-12T14:37:33.245Z,19.38
2023-05-12T14:40:01.563Z,20.08
2023-05-12T14:42:32.316Z,19.74
2023-05-12T14:45:01.045Z,19.69
2023-05-12T14:47:29.142Z,18.73
2023-05-12T14:49:57.479Z,17.89
2023-05-12T14:52:25.492Z,16.96
2023-05-12T14:54:53.587Z,14.89
2023-05-12T14:57:21.711Z,16.21
2023-05-12T14:59:53.657Z,17.41
2023-05-12T15:02:22.872Z,17.54
2023-05-12T15:04:51.282Z,17.81
2023-05-12T15:07:24.026Z,18.18
2023-05-12T15:09:52.280Z,18.15
2023-05-12T15:12:20.620Z,18.08
2023-05-12T15:14:48.737Z,19.49
2023-05-12T15:17:18.309Z,20.40
2023-05-12T15:19:46.561Z,19.79
2023-05-12T15:22:14.929Z,18.94
2023-05-12T15:24:44.137Z,17.93
2023-05-12T15:27:12.225Z,17.33
2023-05-12T15:29:40.511Z,16.26
2023-05-12T15:32:09.171Z,15.20
2023-05-12T15:34:39.197Z,13.94
2023-05-12T15:37:07.274Z,13.78
2023-05-12T15:39:35.496Z,14.58
2023-05-12T15:42:05.512Z,13.35
2023-05-12T15:44:35.256Z,14.33
2023-05-12T15:47:03.416Z,15.61
2023-05-12T15:49:31.906Z,17.28
2023-05-12T15:52:02.590Z,17.89
2023-05-12T15:54:31.127Z,17.49
2023-05-12T15:56:59.309Z,18.36
2023-05-12T15:59:27.479Z,18.00
2023-05-12T16:01:55.398Z,18.28
2023-05-12T16:04:24.433Z,19.42
2023-05-12T16:06:52.428Z,18.71
2023-05-12T16:09:21.804Z,19.29
2023-05-12T16:11:50.528Z,19.69
2023-05-12T16:14:19.284Z,20.13
2023-05-12T16:16:48.398Z,20.22
2023-05-12T16:19:16.521Z,20.26
2023-05-12T16:21:45.517Z,19.17
2023-05-12T16:24:13.844Z,19.76
2023-05-12T16:26:43.704Z,17.76
2023-05-12T16:29:12.028Z,16.01
2023-05-12T16:31:40.276Z,14.71
2023-05-12T16:34:08.398Z,13.55
2023-05-12T16:36:36.318Z,14.17
2023-05-12T16:39:04.744Z,14.36
2023-05-12T16:41:32.719Z,15.13
2023-05-12T16:44:02.423Z,15.57
2023-05-12T16:46:30.602Z,16.54
2023-05-12T16:48:58.619Z,17.75
2023-05-12T16:51:30.560Z,18.46
2023-05-12T16:53:58.915Z,18.38
2023-05-12T16:56:28.140Z,17.25
2023-05-12T16:58:56.271Z,18.37
2023-05-12T17:01:25.716Z,18.27
2023-05-12T17:03:55.145Z,18.81
2023-05-12T17:06:23.270Z,18.98
2023-05-12T17:08:51.467Z,19.79
2023-05-12T17:11:19.786Z,19.58
2023-05-12T17:13:48.057Z,20.34
2023-05-12T17:16:16.113Z,20.72
2023-05-12T17:21:17.459Z,20.30
2023-05-12T17:23:45.874Z,20.47
2023-05-12T17:26:16.623Z,21.08
2023-05-12T17:28:45.066Z,21.29
2023-05-12T17:31:13.159Z,20.90
2023-05-12T17:33:41.400Z,21.38
2023-05-12T17:36:13.196Z,20.89
2023-05-12T17:38:43.548Z,21.65
2023-05-12T17:41:11.664Z,21.50
2023-05-12T17:43:39.737Z,21.45
2023-05-12T17:46:08.446Z,21.06
2023-05-12T17:48:38.418Z,20.96
2023-05-12T17:51:07.575Z,21.68
2023-05-12T17:53:37.661Z,21.85
2023-05-12T17:56:06.179Z,22.06
2023-05-12T17:58:34.342Z,21.68
2023-05-12T18:01:03.421Z,21.60
2023-05-12T18:03:32.078Z,21.27
2023-05-12T18:06:00.424Z,22.21
2023-05-12T18:08:29.767Z,21.93
2023-05-12T18:10:59.395Z,21.56
2023-05-12T18:13:29.053Z,21.97
2023-05-12T18:15:57.666Z,21.55
2023-05-12T18:18:26.542Z,21.39
2023-05-12T18:20:54.754Z,21.63
2023-05-12T18:23:22.789Z,21.95
2023-05-12T18:25:51.108Z,21.50
2023-05-12T18:28:20.692Z,22.15
2023-05-12T18:30:49.021Z,22.54
2023-05-12T18:33:17.098Z,21.46
2023-05-12T18:35:45.370Z,22.29
2023-05-12T18:38:13.326Z,22.58
2023-05-12T18:40:42.050Z,22.30
2023-05-12T18:43:10.229Z,22.58
2023-05-12T18:45:39.939Z,22.98
2023-05-12T18:48:08.298Z,23.41
2023-05-12T18:50:36.401Z,22.81
2023-05-12T18:53:07.025Z,22.88
2023-05-12T18:55:35.141Z,22.93
2023-05-12T18:58:03.918Z,23.41
2023-05-12T19:00:33.900Z,23.25
2023-05-12T19:03:03.553Z,23.49
2023-05-12T19:05:31.769Z,23.65
2023-05-12T19:08:00.384Z,23.70
2023-05-12T19:10:29.188Z,23.96
2023-05-12T19:12:57.623Z,24.26
2023-05-12T19:15:25.847Z,24.23
2023-05-12T19:17:54.085Z,24.33
2023-05-12T19:20:24.020Z,24.68
2023-05-12T19:22:51.932Z,24.84
2023-05-12T19:25:20.789Z,24.63
2023-05-12T19:27:49.088Z,24.64
2023-05-12T19:30:17.147Z,24.97
2023-05-12T19:32:45.993Z,25.01
2023-05-12T19:35:15.659Z,24.95
2023-05-12T19:37:45.339Z,25.27
2023-05-12T19:40:13.598Z,24.96
2023-05-12T19:42:42.624Z,25.73
2023-05-12T19:45:11.844Z,25.57
2023-05-12T19:47:39.897Z,25.95
2023-05-12T19:50:09.295Z,25.86
2023-05-12T19:52:39.322Z,25.72
2023-05-12T19:55:09.727Z,25.87
2023-05-12T19:57:38.250Z,26.24
2023-05-12T20:00:08.133Z,25.73
2023-05-12T20:02:42.449Z,25.77
2023-05-12T20:05:11.166Z,26.07
2023-05-12T20:07:39.097Z,26.28
2023-05-12T20:10:09.918Z,26.73
2023-05-12T20:12:38.170Z,27.04
2023-05-12T20:15:06.808Z,27.49
2023-05-12T20:17:34.688Z,27.02
2023-05-12T20:20:04.135Z,27.23
2023-05-12T20:22:32.177Z,27.42
2023-05-12T20:25:04.383Z,27.50
2023-05-12T20:27:34.038Z,27.70
2023-05-12T20:30:02.442Z,27.42
2023-05-12T20:32:30.946Z,27.24
2023-05-12T20:34:58.864Z,27.66
2023-05-12T20:37:27.341Z,27.29
2023-05-12T20:39:55.631Z,27.58
2023-05-12T20:42:23.708Z,28.09
2023-05-12T20:44:53.783Z,28.27
2023-05-12T20:47:21.889Z,28.26
2023-05-12T20:49:50.005Z,28.43
2023-05-12T20:52:17.841Z,28.39
2023-05-12T20:54:45.702Z,28.02
2023-05-12T20:57:13.670Z,28.15
2023-05-12T20:59:41.727Z,28.28
2023-05-12T21:02:11.098Z,28.87
2023-05-12T21:04:39.141Z,28.98
2023-05-12T21:07:07.402Z,28.92
2023-05-12T21:09:35.535Z,29.08
2023-05-12T21:12:03.420Z,28.95
2023-05-12T21:14:31.853Z,29.37
2023-05-12T21:16:59.842Z,30.42
2023-05-12T21:19:29.187Z,29.84
2023-05-12T21:21:57.092Z,30.09
2023-05-12T21:24:24.914Z,30.35
2023-05-12T21:26:52.769Z,30.38
2023-05-12T21:29:20.662Z,30.01
2023-05-12T21:31:48.594Z,30.57
2023-05-12T21:34:16.569Z,30.96
2023-05-12T21:36:45.990Z,30.19
2023-05-12T21:39:13.894Z,30.40
2023-05-12T21:41:41.747Z,29.64
2023-05-12T21:44:11.215Z,29.54
2023-05-12T21:46:39.510Z,29.71
2023-05-12T21:49:07.573Z,30.60
2023-05-12T21:51:35.535Z,30.76
2023-05-12T21:54:05.222Z,29.81
2023-05-12T21:56:33.091Z,29.87
2023-05-12T21:59:01.517Z,30.13
2023-05-12T22:01:30.795Z,29.82
2023-05-12T22:03:59.629Z,30.23
2023-05-12T22:06:27.476Z,30.03
2023-05-12T22:08:55.709Z,30.46
2023-05-12T22:11:24.967Z,30.26
2023-05-12T22:13:52.803Z,30.25
2023-05-12T22:16:25.742Z,31.40
2023-05-12T22:18:57.004Z,31.14
2023-05-12T22:21:24.960Z,31.04
2023-05-12T22:23:52.823Z,30.85
2023-05-12T22:26:20.696Z,31.62
2023-05-12T22:28:49.907Z,31.04
2023-05-12T22:31:17.948Z,31.96
2023-05-12T22:33:45.798Z,31.56
2023-05-12T22:36:13.690Z,31.54
2023-05-12T22:38:41.607Z,31.53
2023-05-12T22:41:09.426Z,31.62
2023-05-12T22:43:37.445Z,31.65
2023-05-12T22:46:09.418Z,31.44
2023-05-12T22:48:39.584Z,32.18
2023-05-12T22:51:07.906Z,31.92
2023-05-12T22:53:36.560Z,31.55
2023-05-12T22:56:04.913Z,31.89
2023-05-12T22:58:32.793Z,31.93
2023-05-12T23:01:02.188Z,31.06
2023-05-12T23:03:32.851Z,31.60
2023-05-12T23:06:00.890Z,32.10
2023-05-12T23:08:28.938Z,31.39
2023-05-12T23:10:56.784Z,31.50
2023-05-12T23:13:24.620Z,32.00
2023-05-12T23:15:52.554Z,31.30
2023-05-12T23:18:20.598Z,32.17
2023-05-12T23:20:49.844Z,33.04
2023-05-12T23:23:17.628Z,33.63
2023-05-12T23:25:47.174Z,33.75
2023-05-12T23:28:14.981Z,33.89
2023-05-12T23:30:42.949Z,33.66
2023-05-12T23:33:11.585Z,34.48
2023-05-12T23:35:39.473Z,34.26
2023-05-12T23:38:08.804Z,34.01
2023-05-12T23:40:39.120Z,33.76
2023-05-12T23:43:07.714Z,33.80
2023-05-12T23:45:36.025Z,33.39
2023-05-12T23:48:03.862Z,34.17
2023-05-12T23:50:31.860Z,34.77
2023-05-12T23:52:59.661Z,34.00
2023-05-12T23:55:28.966Z,33.82
2023-05-12T23:57:57.050Z,34.61
